Sagunto, Spain
Current Conditions -  °F | °C
As of 4:00 PM on Thursday 23 Oct 2014 (Local Time) from LEBT Reporting Station
Clear Clear  
Wind Chill: 86°   Ceiling: Unl
Heat Index: 86°   Visibility: 6mi
Dew Point: 28°   Wind: 2mph
Humidity: 12%   Direction: NA
Pressure: 30.03"   Gusts: NA
Location:  39.68°N, 0.27°W
Report Text: LEBT 231400Z AUTO VRB02KT CAVOK 30/M02 Q1017
Loading
Personal Weather Stations






























Interactive Weather Map
Tropical Storm Tracking
New forecast layout! Learn more

10-Day Weather Forecast

Advertisements
Track Severe Weather on mobile